sensor_id;sensor_type;location;lat;lon;timestamp;pressure;altitude;pressure_sealevel;temperature;humidity
9721;BME280;4899;42.644;23.366;2023-02-23T00:01:33;94088.88;;;6.13;97.25
9721;BME280;4899;42.644;23.366;2023-02-23T00:03:59;94084.91;;;6.07;96.69
9721;BME280;4899;42.644;23.366;2023-02-23T00:06:27;94093.03;;;6.09;96.55
9721;BME280;4899;42.644;23.366;2023-02-23T00:08:53;94093.59;;;6.06;96.33
9721;BME280;4899;42.644;23.366;2023-02-23T00:11:20;94097.28;;;6.00;97.09
9721;BME280;4899;42.644;23.366;2023-02-23T00:13:47;94094.31;;;5.93;97.63
9721;BME280;4899;42.644;23.366;2023-02-23T00:16:22;94103.00;;;5.92;98.26
9721;BME280;4899;42.644;23.366;2023-02-23T00:18:56;94102.03;;;5.87;99.58
9721;BME280;4899;42.644;23.366;2023-02-23T00:21:31;94106.19;;;5.83;100.00
9721;BME280;4899;42.644;23.366;2023-02-23T00:24:01;94106.25;;;5.78;100.00
9721;BME280;4899;42.644;23.366;2023-02-23T00:26:29;94104.56;;;5.74;100.00
9721;BME280;4899;42.644;23.366;2023-02-23T00:28:56;94099.31;;;5.65;100.00
9721;BME280;4899;42.644;23.366;2023-02-23T00:31:24;94103.16;;;5.63;100.00
9721;BME280;4899;42.644;23.366;2023-02-23T00:33:52;94094.25;;;5.46;100.00
9721;BME280;4899;42.644;23.366;2023-02-23T00:36:20;94100.91;;;5.42;100.00
9721;BME280;4899;42.644;23.366;2023-02-23T00:38:51;94108.16;;;5.35;100.00
9721;BME280;4899;42.644;23.366;2023-02-23T00:41:18;94095.41;;;5.16;100.00
9721;BME280;4899;42.644;23.366;2023-02-23T00:43:54;94100.50;;;5.16;100.00
9721;BME280;4899;42.644;23.366;2023-02-23T00:46:22;94095.53;;;5.06;100.00
9721;BME280;4899;42.644;23.366;2023-02-23T00:48:49;94099.69;;;5.02;100.00
9721;BME280;4899;42.644;23.366;2023-02-23T00:51:16;94108.34;;;5.01;100.00
9721;BME280;4899;42.644;23.366;2023-02-23T00:53:43;94101.53;;;4.97;100.00
9721;BME280;4899;42.644;23.366;2023-02-23T00:56:13;94099.22;;;4.95;100.00
9721;BME280;4899;42.644;23.366;2023-02-23T00:58:39;94104.88;;;4.92;100.00
9721;BME280;4899;42.644;23.366;2023-02-23T01:01:10;94095.78;;;4.86;100.00
9721;BME280;4899;42.644;23.366;2023-02-23T01:03:36;94106.47;;;4.88;100.00
9721;BME280;4899;42.644;23.366;2023-02-23T01:06:05;94090.28;;;4.79;100.00
9721;BME280;4899;42.644;23.366;2023-02-23T01:08:32;94097.09;;;4.83;100.00
9721;BME280;4899;42.644;23.366;2023-02-23T01:11:04;94095.44;;;4.74;100.00
9721;BME280;4899;42.644;23.366;2023-02-23T01:13:29;94089.91;;;4.67;100.00
9721;BME280;4899;42.644;23.366;2023-02-23T01:15:55;94092.66;;;4.70;100.00
9721;BME280;4899;42.644;23.366;2023-02-23T01:18:20;94089.63;;;4.68;100.00
9721;BME280;4899;42.644;23.366;2023-02-23T01:20:46;94091.91;;;4.70;100.00
9721;BME280;4899;42.644;23.366;2023-02-23T01:23:13;94094.19;;;4.71;100.00
9721;BME280;4899;42.644;23.366;2023-02-23T01:25:43;94092.34;;;4.77;100.00
9721;BME280;4899;42.644;23.366;2023-02-23T01:28:12;94096.41;;;4.78;100.00
9721;BME280;4899;42.644;23.366;2023-02-23T01:30:38;94083.66;;;4.78;100.00
9721;BME280;4899;42.644;23.366;2023-02-23T01:33:05;94088.59;;;4.69;100.00
9721;BME280;4899;42.644;23.366;2023-02-23T01:35:31;94097.00;;;4.70;100.00
9721;BME280;4899;42.644;23.366;2023-02-23T01:37:58;94097.53;;;4.67;100.00
9721;BME280;4899;42.644;23.366;2023-02-23T01:40:25;94096.56;;;4.62;100.00
9721;BME280;4899;42.644;23.366;2023-02-23T01:43:18;94089.19;;;4.61;100.00
9721;BME280;4899;42.644;23.366;2023-02-23T01:45:51;94088.44;;;4.60;100.00
9721;BME280;4899;42.644;23.366;2023-02-23T01:48:21;94085.28;;;4.69;100.00
9721;BME280;4899;42.644;23.366;2023-02-23T01:51:07;94085.06;;;4.65;100.00
9721;BME280;4899;42.644;23.366;2023-02-23T01:53:39;94091.91;;;4.70;100.00
9721;BME280;4899;42.644;23.366;2023-02-23T01:56:14;94071.59;;;4.64;100.00
9721;BME280;4899;42.644;23.366;2023-02-23T01:58:45;94078.66;;;4.68;100.00
9721;BME280;4899;42.644;23.366;2023-02-23T02:01:12;94081.94;;;4.73;100.00
9721;BME280;4899;42.644;23.366;2023-02-23T02:03:44;94085.72;;;4.76;100.00
9721;BME280;4899;42.644;23.366;2023-02-23T02:06:14;94081.66;;;4.75;100.00
9721;BME280;4899;42.644;23.366;2023-02-23T02:08:45;94076.09;;;4.73;100.00
9721;BME280;4899;42.644;23.366;2023-02-23T02:11:12;94082.09;;;4.82;100.00
9721;BME280;4899;42.644;23.366;2023-02-23T02:13:57;94069.81;;;4.84;100.00
9721;BME280;4899;42.644;23.366;2023-02-23T02:22:35;94078.09;;;4.94;100.00
9721;BME280;4899;42.644;23.366;2023-02-23T02:25:27;94076.91;;;4.87;100.00
9721;BME280;4899;42.644;23.366;2023-02-23T02:28:26;94077.75;;;4.82;100.00
9721;BME280;4899;42.644;23.366;2023-02-23T02:39:56;94081.06;;;4.59;100.00
9721;BME280;4899;42.644;23.366;2023-02-23T02:42:53;94078.88;;;4.52;100.00
9721;BME280;4899;42.644;23.366;2023-02-23T02:45:30;94083.03;;;4.43;100.00
9721;BME280;4899;42.644;23.366;2023-02-23T02:51:06;94080.97;;;4.21;100.00
9721;BME280;4899;42.644;23.366;2023-02-23T02:53:56;94079.50;;;4.15;100.00
9721;BME280;4899;42.644;23.366;2023-02-23T02:56:25;94068.59;;;4.10;100.00
9721;BME280;4899;42.644;23.366;2023-02-23T02:58:52;94073.47;;;4.06;100.00
9721;BME280;4899;42.644;23.366;2023-02-23T03:01:19;94064.66;;;3.98;100.00
9721;BME280;4899;42.644;23.366;2023-02-23T03:04:19;94063.63;;;3.99;100.00
9721;BME280;4899;42.644;23.366;2023-02-23T03:07:33;94068.72;;;3.99;100.00
9721;BME280;4899;42.644;23.366;2023-02-23T03:19:25;94078.69;;;3.91;100.00
9721;BME280;4899;42.644;23.366;2023-02-23T03:22:25;94088.06;;;3.95;100.00
9721;BME280;4899;42.644;23.366;2023-02-23T03:31:09;94090.59;;;3.95;100.00
9721;BME280;4899;42.644;23.366;2023-02-23T03:34:12;94089.84;;;3.95;100.00
9721;BME280;4899;42.644;23.366;2023-02-23T03:37:25;94090.66;;;3.90;100.00
9721;BME280;4899;42.644;23.366;2023-02-23T03:40:24;94091.19;;;3.87;100.00
9721;BME280;4899;42.644;23.366;2023-02-23T03:43:17;94088.47;;;3.79;100.00
9721;BME280;4899;42.644;23.366;2023-02-23T03:46:04;94082.69;;;3.68;100.00
9721;BME280;4899;42.644;23.366;2023-02-23T03:48:52;94093.34;;;3.70;100.00
9721;BME280;4899;42.644;23.366;2023-02-23T03:51:38;94099.78;;;3.62;100.00
9721;BME280;4899;42.644;23.366;2023-02-23T03:54:29;94094.03;;;3.52;100.00
9721;BME280;4899;42.644;23.366;2023-02-23T03:57:17;94110.31;;;3.51;100.00
9721;BME280;4899;42.644;23.366;2023-02-23T04:00:08;94087.69;;;3.44;100.00
9721;BME280;4899;42.644;23.366;2023-02-23T04:02:55;94098.56;;;3.55;100.00
9721;BME280;4899;42.644;23.366;2023-02-23T04:05:42;94086.41;;;3.52;100.00
9721;BME280;4899;42.644;23.366;2023-02-23T04:08:35;94108.88;;;3.68;100.00
9721;BME280;4899;42.644;23.366;2023-02-23T04:11:34;94101.53;;;3.67;100.00
9721;BME280;4899;42.644;23.366;2023-02-23T04:14:28;94111.44;;;3.68;100.00
9721;BME280;4899;42.644;23.366;2023-02-23T04:16:57;94096.00;;;3.60;100.00
9721;BME280;4899;42.644;23.366;2023-02-23T04:19:25;94109.41;;;3.65;100.00
9721;BME280;4899;42.644;23.366;2023-02-23T04:21:52;94096.75;;;3.60;100.00
9721;BME280;4899;42.644;23.366;2023-02-23T04:24:17;94100.03;;;3.61;100.00
9721;BME280;4899;42.644;23.366;2023-02-23T04:26:43;94101.06;;;3.60;100.00
9721;BME280;4899;42.644;23.366;2023-02-23T04:29:10;94098.53;;;3.60;100.00
9721;BME280;4899;42.644;23.366;2023-02-23T04:31:35;94105.63;;;3.63;100.00
9721;BME280;4899;42.644;23.366;2023-02-23T04:34:01;94102.53;;;3.66;100.00
9721;BME280;4899;42.644;23.366;2023-02-23T04:36:29;94095.94;;;3.65;100.00
9721;BME280;4899;42.644;23.366;2023-02-23T04:38:55;94111.09;;;3.80;100.00
9721;BME280;4899;42.644;23.366;2023-02-23T04:41:21;94109.59;;;3.79;100.00
9721;BME280;4899;42.644;23.366;2023-02-23T04:43:47;94112.06;;;3.84;100.00
9721;BME280;4899;42.644;23.366;2023-02-23T04:46:12;94108.81;;;3.79;100.00
9721;BME280;4899;42.644;23.366;2023-02-23T04:48:38;94112.63;;;3.81;100.00
9721;BME280;4899;42.644;23.366;2023-02-23T04:51:03;94107.53;;;3.81;100.00
9721;BME280;4899;42.644;23.366;2023-02-23T04:53:29;94108.81;;;3.79;100.00
9721;BME280;4899;42.644;23.366;2023-02-23T04:55:54;94102.00;;;3.74;100.00
9721;BME280;4899;42.644;23.366;2023-02-23T04:58:20;94108.34;;;3.71;100.00
9721;BME280;4899;42.644;23.366;2023-02-23T05:00:45;94106.06;;;3.70;100.00
9721;BME280;4899;42.644;23.366;2023-02-23T05:03:11;94115.75;;;3.73;100.00
9721;BME280;4899;42.644;23.366;2023-02-23T05:05:37;94113.69;;;3.70;100.00
9721;BME280;4899;42.644;23.366;2023-02-23T05:08:05;94117.00;;;3.70;100.00
9721;BME280;4899;42.644;23.366;2023-02-23T05:10:30;94101.06;;;3.60;100.00
9721;BME280;4899;42.644;23.366;2023-02-23T05:12:56;94110.19;;;3.66;100.00
9721;BME280;4899;42.644;23.366;2023-02-23T05:15:22;94120.84;;;3.68;100.00
9721;BME280;4899;42.644;23.366;2023-02-23T05:17:48;94116.78;;;3.67;100.00
9721;BME280;4899;42.644;23.366;2023-02-23T05:20:14;94111.72;;;3.62;100.00
9721;BME280;4899;42.644;23.366;2023-02-23T05:22:40;94113.28;;;3.58;100.00
9721;BME280;4899;42.644;23.366;2023-02-23T05:25:06;94117.84;;;3.61;100.00
9721;BME280;4899;42.644;23.366;2023-02-23T05:27:42;94112.31;;;3.54;100.00
9721;BME280;4899;42.644;23.366;2023-02-23T05:30:08;94123.44;;;3.63;100.00
9721;BME280;4899;42.644;23.366;2023-02-23T05:32:35;94126.47;;;3.65;100.00
9721;BME280;4899;42.644;23.366;2023-02-23T05:35:01;94127.00;;;3.62;100.00
9721;BME280;4899;42.644;23.366;2023-02-23T05:37:27;94131.59;;;3.60;100.00
9721;BME280;4899;42.644;23.366;2023-02-23T05:39:52;94123.53;;;3.48;100.00
9721;BME280;4899;42.644;23.366;2023-02-23T05:42:18;94116.72;;;3.38;100.00
9721;BME280;4899;42.644;23.366;2023-02-23T05:44:44;94133.75;;;3.37;100.00
9721;BME280;4899;42.644;23.366;2023-02-23T05:47:09;94132.00;;;3.33;100.00
9721;BME280;4899;42.644;23.366;2023-02-23T05:49:35;94144.94;;;3.36;100.00
9721;BME280;4899;42.644;23.366;2023-02-23T05:52:01;94135.34;;;3.28;100.00
9721;BME280;4899;42.644;23.366;2023-02-23T05:54:27;94146.50;;;3.32;100.00
9721;BME280;4899;42.644;23.366;2023-02-23T05:56:52;94142.19;;;3.33;100.00
9721;BME280;4899;42.644;23.366;2023-02-23T05:59:18;94153.09;;;3.33;100.00
9721;BME280;4899;42.644;23.366;2023-02-23T06:01:43;94141.72;;;3.26;100.00
9721;BME280;4899;42.644;23.366;2023-02-23T06:04:08;94157.91;;;3.35;100.00
9721;BME280;4899;42.644;23.366;2023-02-23T06:06:34;94144.94;;;3.36;100.00
9721;BME280;4899;42.644;23.366;2023-02-23T06:09:01;94163.19;;;3.49;100.00
9721;BME280;4899;42.644;23.366;2023-02-23T06:11:27;94162.94;;;3.50;100.00
9721;BME280;4899;42.644;23.366;2023-02-23T06:13:53;94160.13;;;3.52;100.00
9721;BME280;4899;42.644;23.366;2023-02-23T06:16:19;94159.59;;;3.55;100.00
9721;BME280;4899;42.644;23.366;2023-02-23T06:18:45;94157.81;;;3.55;100.00
9721;BME280;4899;42.644;23.366;2023-02-23T06:21:11;94173.78;;;3.61;100.00
9721;BME280;4899;42.644;23.366;2023-02-23T06:23:36;94178.81;;;3.71;100.00
9721;BME280;4899;42.644;23.366;2023-02-23T06:26:02;94171.69;;;3.73;100.00
9721;BME280;4899;42.644;23.366;2023-02-23T06:28:28;94177.00;;;3.77;100.00
9721;BME280;4899;42.644;23.366;2023-02-23T06:30:54;94169.88;;;3.79;100.00
9721;BME280;4899;42.644;23.366;2023-02-23T06:33:20;94179.94;;;3.94;100.00
9721;BME280;4899;42.644;23.366;2023-02-23T06:35:46;94183.13;;;4.10;100.00
9721;BME280;4899;42.644;23.366;2023-02-23T06:38:11;94175.94;;;4.17;100.00
9721;BME280;4899;42.644;23.366;2023-02-23T06:40:38;94187.03;;;4.31;100.00
9721;BME280;4899;42.644;23.366;2023-02-23T06:43:04;94185.41;;;4.40;100.00
9721;BME280;4899;42.644;23.366;2023-02-23T06:45:30;94189.34;;;4.56;100.00
9721;BME280;4899;42.644;23.366;2023-02-23T06:47:57;94188.44;;;4.71;100.00
9721;BME280;4899;42.644;23.366;2023-02-23T06:50:22;94191.22;;;4.75;100.00
9721;BME280;4899;42.644;23.366;2023-02-23T06:52:48;94186.53;;;4.82;100.00
9721;BME280;4899;42.644;23.366;2023-02-23T06:55:14;94198.38;;;4.97;100.00
9721;BME280;4899;42.644;23.366;2023-02-23T06:57:40;94190.75;;;4.97;100.00
9721;BME280;4899;42.644;23.366;2023-02-23T07:00:07;94194.34;;;5.14;100.00
9721;BME280;4899;42.644;23.366;2023-02-23T07:02:33;94184.91;;;5.15;100.00
9721;BME280;4899;42.644;23.366;2023-02-23T07:05:00;94196.25;;;5.28;100.00
9721;BME280;4899;42.644;23.366;2023-02-23T07:07:26;94197.91;;;5.37;100.00
9721;BME280;4899;42.644;23.366;2023-02-23T07:09:52;94186.81;;;5.47;100.00
9721;BME280;4899;42.644;23.366;2023-02-23T07:12:17;94192.34;;;5.54;100.00
9721;BME280;4899;42.644;23.366;2023-02-23T07:14:52;94188.81;;;5.69;100.00
9721;BME280;4899;42.644;23.366;2023-02-23T07:17:17;94189.16;;;5.81;100.00
9721;BME280;4899;42.644;23.366;2023-02-23T07:19:44;94194.84;;;5.97;100.00
9721;BME280;4899;42.644;23.366;2023-02-23T07:22:09;94196.97;;;6.08;100.00
9721;BME280;4899;42.644;23.366;2023-02-23T07:24:35;94196.03;;;6.18;100.00
9721;BME280;4899;42.644;23.366;2023-02-23T07:27:00;94199.28;;;6.24;100.00
9721;BME280;4899;42.644;23.366;2023-02-23T07:29:26;94196.94;;;6.27;100.00
9721;BME280;4899;42.644;23.366;2023-02-23T07:31:54;94191.16;;;6.35;100.00
9721;BME280;4899;42.644;23.366;2023-02-23T07:34:20;94194.06;;;6.47;100.00
9721;BME280;4899;42.644;23.366;2023-02-23T07:36:45;94188.56;;;6.54;100.00
9721;BME280;4899;42.644;23.366;2023-02-23T07:39:11;94195.94;;;6.56;100.00
9721;BME280;4899;42.644;23.366;2023-02-23T07:41:49;94190.47;;;6.62;100.00
9721;BME280;4899;42.644;23.366;2023-02-23T07:44:15;94179.88;;;6.69;100.00
9721;BME280;4899;42.644;23.366;2023-02-23T07:46:40;94187.56;;;6.83;100.00
9721;BME280;4899;42.644;23.366;2023-02-23T07:49:06;94183.75;;;6.94;100.00
9721;BME280;4899;42.644;23.366;2023-02-23T07:51:31;94184.81;;;7.06;100.00
9721;BME280;4899;42.644;23.366;2023-02-23T07:54:01;94179.03;;;7.15;100.00
9721;BME280;4899;42.644;23.366;2023-02-23T07:56:28;94180.06;;;7.27;100.00
9721;BME280;4899;42.644;23.366;2023-02-23T07:58:53;94183.38;;;7.78;100.00
9721;BME280;4899;42.644;23.366;2023-02-23T08:01:19;94183.97;;;7.97;100.00
9721;BME280;4899;42.644;23.366;2023-02-23T08:03:45;94195.84;;;8.15;100.00
9721;BME280;4899;42.644;23.366;2023-02-23T08:06:15;94182.06;;;8.25;100.00
9721;BME280;4899;42.644;23.366;2023-02-23T08:08:40;94190.09;;;8.32;100.00
9721;BME280;4899;42.644;23.366;2023-02-23T08:11:06;94185.84;;;8.50;99.43
9721;BME280;4899;42.644;23.366;2023-02-23T08:13:32;94188.47;;;8.67;97.50
9721;BME280;4899;42.644;23.366;2023-02-23T08:15:58;94186.88;;;8.80;96.31
9721;BME280;4899;42.644;23.366;2023-02-23T08:18:23;94177.25;;;8.85;95.38
9721;BME280;4899;42.644;23.366;2023-02-23T08:20:49;94177.63;;;9.01;93.58
9721;BME280;4899;42.644;23.366;2023-02-23T08:23:15;94176.28;;;9.12;92.81
9721;BME280;4899;42.644;23.366;2023-02-23T08:25:43;94178.13;;;9.29;92.07
9721;BME280;4899;42.644;23.366;2023-02-23T08:28:09;94185.53;;;9.39;90.75
9721;BME280;4899;42.644;23.366;2023-02-23T08:30:35;94170.03;;;9.44;90.31
9721;BME280;4899;42.644;23.366;2023-02-23T08:33:00;94187.25;;;9.61;89.24
9721;BME280;4899;42.644;23.366;2023-02-23T08:35:27;94183.03;;;9.74;88.45
9721;BME280;4899;42.644;23.366;2023-02-23T08:37:54;94183.78;;;9.83;87.29
9721;BME280;4899;42.644;23.366;2023-02-23T08:40:21;94183.81;;;9.92;86.38
9721;BME280;4899;42.644;23.366;2023-02-23T08:42:47;94173.22;;;10.02;85.14
9721;BME280;4899;42.644;23.366;2023-02-23T08:45:18;94181.66;;;10.20;83.55
9721;BME280;4899;42.644;23.366;2023-02-23T08:47:44;94177.59;;;10.27;82.52
9721;BME280;4899;42.644;23.366;2023-02-23T08:50:11;94186.34;;;10.43;81.57
9721;BME280;4899;42.644;23.366;2023-02-23T08:52:37;94176.16;;;10.56;80.35
9721;BME280;4899;42.644;23.366;2023-02-23T08:55:03;94181.75;;;10.66;79.23
9721;BME280;4899;42.644;23.366;2023-02-23T08:57:34;94170.84;;;10.69;78.83
9721;BME280;4899;42.644;23.366;2023-02-23T09:00:01;94176.53;;;10.84;78.09
9721;BME280;4899;42.644;23.366;2023-02-23T09:02:26;94178.34;;;10.92;77.19
9721;BME280;4899;42.644;23.366;2023-02-23T09:04:52;94171.81;;;10.94;77.02
9721;BME280;4899;42.644;23.366;2023-02-23T09:07:20;94183.97;;;11.15;76.67
9721;BME280;4899;42.644;23.366;2023-02-23T09:09:56;94175.59;;;11.26;74.88
9721;BME280;4899;42.644;23.366;2023-02-23T09:12:22;94173.56;;;11.40;74.77
9721;BME280;4899;42.644;23.366;2023-02-23T09:14:47;94179.53;;;11.53;73.73
9721;BME280;4899;42.644;23.366;2023-02-23T09:17:13;94188.25;;;11.61;73.11
9721;BME280;4899;42.644;23.366;2023-02-23T09:19:39;94171.38;;;11.72;72.09
9721;BME280;4899;42.644;23.366;2023-02-23T09:22:04;94175.09;;;11.83;71.32
9721;BME280;4899;42.644;23.366;2023-02-23T09:24:30;94170.44;;;11.97;70.74
9721;BME280;4899;42.644;23.366;2023-02-23T09:26:56;94176.06;;;12.12;69.88
9721;BME280;4899;42.644;23.366;2023-02-23T09:29:22;94178.72;;;12.24;67.93
9721;BME280;4899;42.644;23.366;2023-02-23T09:31:48;94161.28;;;12.21;67.57
9721;BME280;4899;42.644;23.366;2023-02-23T09:34:17;94170.25;;;12.36;67.01
9721;BME280;4899;42.644;23.366;2023-02-23T09:36:43;94174.81;;;12.51;66.26
9721;BME280;4899;42.644;23.366;2023-02-23T09:39:08;94168.47;;;12.60;65.56
9721;BME280;4899;42.644;23.366;2023-02-23T09:47:39;94181.53;;;12.88;61.03
9721;BME280;4899;42.644;23.366;2023-02-23T09:50:16;94185.41;;;12.94;63.09
9721;BME280;4899;42.644;23.366;2023-02-23T09:52:50;94184.44;;;13.11;62.88
9721;BME280;4899;42.644;23.366;2023-02-23T09:55:17;94155.72;;;13.01;61.98
9721;BME280;4899;42.644;23.366;2023-02-23T09:57:46;94171.03;;;13.30;60.88
9721;BME280;4899;42.644;23.366;2023-02-23T10:00:16;94175.63;;;13.49;60.10
9721;BME280;4899;42.644;23.366;2023-02-23T10:05:25;94180.84;;;13.77;59.82
9721;BME280;4899;42.644;23.366;2023-02-23T10:08:02;94171.88;;;13.86;58.47
9721;BME280;4899;42.644;23.366;2023-02-23T10:13:13;94170.41;;;14.13;57.16
9721;BME280;4899;42.644;23.366;2023-02-23T10:18:47;94164.25;;;14.46;55.13
9721;BME280;4899;42.644;23.366;2023-02-23T10:21:38;94170.50;;;14.61;54.54
9721;BME280;4899;42.644;23.366;2023-02-23T10:24:15;94163.09;;;14.75;54.91
9721;BME280;4899;42.644;23.366;2023-02-23T10:26:50;94155.50;;;14.82;54.09
9721;BME280;4899;42.644;23.366;2023-02-23T10:31:59;94147.47;;;15.03;53.91
9721;BME280;4899;42.644;23.366;2023-02-23T10:34:27;94144.94;;;15.22;53.98
9721;BME280;4899;42.644;23.366;2023-02-23T10:37:04;94149.84;;;15.43;51.86
9721;BME280;4899;42.644;23.366;2023-02-23T10:39:32;94138.91;;;15.53;52.61
9721;BME280;4899;42.644;23.366;2023-02-23T10:42:03;94144.09;;;15.53;51.37
9721;BME280;4899;42.644;23.366;2023-02-23T10:44:30;94132.81;;;15.11;53.17
9721;BME280;4899;42.644;23.366;2023-02-23T10:47:07;94141.78;;;15.48;51.60
9721;BME280;4899;42.644;23.366;2023-02-23T10:49:49;94135.41;;;15.81;50.50
9721;BME280;4899;42.644;23.366;2023-02-23T10:52:20;94130.09;;;15.93;51.47
9721;BME280;4899;42.644;23.366;2023-02-23T10:54:48;94120.66;;;16.04;51.15
9721;BME280;4899;42.644;23.366;2023-02-23T10:57:29;94123.13;;;16.16;49.46
9721;BME280;4899;42.644;23.366;2023-02-23T11:02:27;94119.41;;;16.37;50.20
9721;BME280;4899;42.644;23.366;2023-02-23T11:04:56;94116.75;;;16.56;49.73
9721;BME280;4899;42.644;23.366;2023-02-23T11:07:24;94112.59;;;16.51;49.03
9721;BME280;4899;42.644;23.366;2023-02-23T11:09:56;94110.50;;;16.60;48.85
9721;BME280;4899;42.644;23.366;2023-02-23T11:12:42;94109.97;;;16.71;46.05
9721;BME280;4899;42.644;23.366;2023-02-23T11:18:19;94097.19;;;16.39;46.94
9721;BME280;4899;42.644;23.366;2023-02-23T11:20:46;94101.00;;;16.91;47.65
9721;BME280;4899;42.644;23.366;2023-02-23T11:25:47;94105.34;;;17.36;47.53
9721;BME280;4899;42.644;23.366;2023-02-23T11:28:36;94100.59;;;17.72;43.99
9721;BME280;4899;42.644;23.366;2023-02-23T11:31:14;94102.41;;;17.68;47.14
9721;BME280;4899;42.644;23.366;2023-02-23T11:33:42;94098.38;;;18.07;45.83
9721;BME280;4899;42.644;23.366;2023-02-23T11:36:26;94093.00;;;18.30;42.90
9721;BME280;4899;42.644;23.366;2023-02-23T11:42:19;94085.69;;;18.43;42.60
9721;BME280;4899;42.644;23.366;2023-02-23T11:45:20;94091.47;;;19.83;41.70
9721;BME280;4899;42.644;23.366;2023-02-23T11:47:52;94075.88;;;21.15;39.45
9721;BME280;4899;42.644;23.366;2023-02-23T11:50:33;94071.47;;;22.03;38.23
9721;BME280;4899;42.644;23.366;2023-02-23T11:53:29;94061.22;;;22.85;34.98
9721;BME280;4899;42.644;23.366;2023-02-23T11:55:59;94097.91;;;23.26;39.08
9721;BME280;4899;42.644;23.366;2023-02-23T11:58:37;94084.53;;;23.17;37.12
9721;BME280;4899;42.644;23.366;2023-02-23T12:01:08;94090.00;;;22.92;37.04
9721;BME280;4899;42.644;23.366;2023-02-23T12:03:57;94075.88;;;22.76;35.47
9721;BME280;4899;42.644;23.366;2023-02-23T12:06:37;94077.78;;;23.16;35.26
9721;BME280;4899;42.644;23.366;2023-02-23T12:12:17;94061.72;;;24.09;33.12
9721;BME280;4899;42.644;23.366;2023-02-23T12:14:51;94087.63;;;24.65;35.71
9721;BME280;4899;42.644;23.366;2023-02-23T12:20:29;94058.22;;;25.36;32.25
9721;BME280;4899;42.644;23.366;2023-02-23T12:23:12;94054.13;;;25.35;31.41
9721;BME280;4899;42.644;23.366;2023-02-23T12:26:13;94045.25;;;25.26;31.51
9721;BME280;4899;42.644;23.366;2023-02-23T12:33:47;94075.00;;;24.25;33.61
9721;BME280;4899;42.644;23.366;2023-02-23T12:41:37;94083.16;;;22.57;36.09
9721;BME280;4899;42.644;23.366;2023-02-23T12:47:11;94070.94;;;22.88;35.65
9721;BME280;4899;42.644;23.366;2023-02-23T12:50:39;94055.16;;;22.92;34.28
9721;BME280;4899;42.644;23.366;2023-02-23T12:55:12;94077.34;;;22.77;35.46
9721;BME280;4899;42.644;23.366;2023-02-23T12:57:57;94057.88;;;22.81;33.83
9721;BME280;4899;42.644;23.366;2023-02-23T13:08:55;94064.78;;;23.02;35.04
9721;BME280;4899;42.644;23.366;2023-02-23T13:16:45;94065.00;;;22.73;34.70
9721;BME280;4899;42.644;23.366;2023-02-23T13:19:22;94053.19;;;22.55;34.31
9721;BME280;4899;42.644;23.366;2023-02-23T13:21:55;94067.16;;;22.41;35.17
9721;BME280;4899;42.644;23.366;2023-02-23T13:24:34;94052.25;;;22.31;34.39
9721;BME280;4899;42.644;23.366;2023-02-23T13:29:35;94059.22;;;21.86;35.43
9721;BME280;4899;42.644;23.366;2023-02-23T13:32:03;94051.75;;;21.84;35.35
9721;BME280;4899;42.644;23.366;2023-02-23T13:34:34;94048.84;;;21.64;35.16
9721;BME280;4899;42.644;23.366;2023-02-23T13:37:04;94048.97;;;21.22;35.89
9721;BME280;4899;42.644;23.366;2023-02-23T13:42:39;94043.00;;;21.14;35.81
9721;BME280;4899;42.644;23.366;2023-02-23T13:45:47;94043.00;;;21.03;36.21
9721;BME280;4899;42.644;23.366;2023-02-23T13:51:05;94045.31;;;20.87;36.13
9721;BME280;4899;42.644;23.366;2023-02-23T13:56:08;94037.44;;;20.76;36.64
9721;BME280;4899;42.644;23.366;2023-02-23T13:58:36;94047.19;;;20.83;36.66
9721;BME280;4899;42.644;23.366;2023-02-23T14:01:13;94049.78;;;20.83;36.33
9721;BME280;4899;42.644;23.366;2023-02-23T14:03:57;94050.53;;;20.76;36.00
9721;BME280;4899;42.644;23.366;2023-02-23T14:06:26;94041.59;;;20.67;36.77
9721;BME280;4899;42.644;23.366;2023-02-23T14:09:16;94046.06;;;20.63;36.23
9721;BME280;4899;42.644;23.366;2023-02-23T14:11:46;94039.34;;;20.47;36.78
9721;BME280;4899;42.644;23.366;2023-02-23T14:15:01;94032.59;;;20.25;36.62
9721;BME280;4899;42.644;23.366;2023-02-23T14:20:10;94051.19;;;19.98;36.77
9721;BME280;4899;42.644;23.366;2023-02-23T14:28:34;94038.31;;;19.40;38.63
9721;BME280;4899;42.644;23.366;2023-02-23T14:31:18;94041.22;;;19.21;39.12
9721;BME280;4899;42.644;23.366;2023-02-23T14:41:49;94036.03;;;18.22;41.61
9721;BME280;4899;42.644;23.366;2023-02-23T14:47:11;94045.81;;;17.91;42.04
9721;BME280;4899;42.644;23.366;2023-02-23T14:49:48;94054.16;;;17.74;41.90
9721;BME280;4899;42.644;23.366;2023-02-23T14:52:31;94048.28;;;17.50;42.54
9721;BME280;4899;42.644;23.366;2023-02-23T14:55:21;94052.25;;;17.37;43.17
9721;BME280;4899;42.644;23.366;2023-02-23T14:57:48;94045.63;;;17.13;42.19
9721;BME280;4899;42.644;23.366;2023-02-23T15:00:31;94051.06;;;17.05;42.58
9721;BME280;4899;42.644;23.366;2023-02-23T15:03:04;94052.69;;;16.86;43.56
9721;BME280;4899;42.644;23.366;2023-02-23T15:05:33;94050.56;;;16.69;43.10
9721;BME280;4899;42.644;23.366;2023-02-23T15:08:03;94048.81;;;16.54;43.55
9721;BME280;4899;42.644;23.366;2023-02-23T15:10:33;94053.69;;;16.33;44.00
9721;BME280;4899;42.644;23.366;2023-02-23T15:13:00;94069.72;;;16.15;43.98
9721;BME280;4899;42.644;23.366;2023-02-23T15:15:32;94068.72;;;16.00;44.29
9721;BME280;4899;42.644;23.366;2023-02-23T15:18:00;94062.50;;;15.86;44.45
9721;BME280;4899;42.644;23.366;2023-02-23T15:20:32;94074.22;;;15.76;45.08
9721;BME280;4899;42.644;23.366;2023-02-23T15:23:03;94078.19;;;15.54;45.63
9721;BME280;4899;42.644;23.366;2023-02-23T15:25:38;94077.78;;;15.33;46.28
9721;BME280;4899;42.644;23.366;2023-02-23T15:28:30;94076.75;;;15.18;47.94
9721;BME280;4899;42.644;23.366;2023-02-23T15:31:00;94084.19;;;15.04;46.32
9721;BME280;4899;42.644;23.366;2023-02-23T15:33:26;94092.66;;;14.85;47.66
9721;BME280;4899;42.644;23.366;2023-02-23T15:36:07;94084.06;;;14.81;48.97
9721;BME280;4899;42.644;23.366;2023-02-23T15:38:39;94089.84;;;14.74;49.96
9721;BME280;4899;42.644;23.366;2023-02-23T15:41:08;94088.84;;;14.63;48.50
9721;BME280;4899;42.644;23.366;2023-02-23T15:43:40;94101.97;;;14.55;48.71
9721;BME280;4899;42.644;23.366;2023-02-23T15:46:19;94104.72;;;14.46;48.57